sensor_id;sensor_type;location;lat;lon;timestamp;P1;durP1;ratioP1;P2;durP2;ratioP2
46318;SDS011;32042;50.916;2.926;2022-07-18T00:01:48;13.13;;;5.50;;
46318;SDS011;32042;50.916;2.926;2022-07-18T00:04:14;14.95;;;5.68;;
46318;SDS011;32042;50.916;2.926;2022-07-18T00:06:40;6.82;;;5.97;;
46318;SDS011;32042;50.916;2.926;2022-07-18T00:09:06;12.85;;;6.50;;
46318;SDS011;32042;50.916;2.926;2022-07-18T00:11:31;8.18;;;5.82;;
46318;SDS011;32042;50.916;2.926;2022-07-18T00:13:57;7.03;;;5.20;;
46318;SDS011;32042;50.916;2.926;2022-07-18T00:16:23;8.77;;;5.53;;
46318;SDS011;32042;50.916;2.926;2022-07-18T00:18:49;8.90;;;5.60;;
46318;SDS011;32042;50.916;2.926;2022-07-18T00:21:15;9.02;;;5.13;;
46318;SDS011;32042;50.916;2.926;2022-07-18T00:23:41;10.13;;;4.97;;
46318;SDS011;32042;50.916;2.926;2022-07-18T00:26:07;6.93;;;5.25;;
46318;SDS011;32042;50.916;2.926;2022-07-18T00:28:33;9.20;;;5.07;;
46318;SDS011;32042;50.916;2.926;2022-07-18T00:30:59;10.75;;;5.10;;
46318;SDS011;32042;50.916;2.926;2022-07-18T00:33:24;8.02;;;5.47;;
46318;SDS011;32042;50.916;2.926;2022-07-18T00:35:50;8.20;;;5.05;;
46318;SDS011;32042;50.916;2.926;2022-07-18T00:38:16;11.98;;;5.32;;
46318;SDS011;32042;50.916;2.926;2022-07-18T00:40:42;9.48;;;5.43;;
46318;SDS011;32042;50.916;2.926;2022-07-18T00:43:08;12.18;;;5.40;;
46318;SDS011;32042;50.916;2.926;2022-07-18T00:45:37;5.72;;;4.68;;
46318;SDS011;32042;50.916;2.926;2022-07-18T00:48:06;8.75;;;5.55;;
46318;SDS011;32042;50.916;2.926;2022-07-18T00:50:32;13.55;;;5.00;;
46318;SDS011;32042;50.916;2.926;2022-07-18T00:52:58;5.50;;;4.65;;
46318;SDS011;32042;50.916;2.926;2022-07-18T00:55:24;5.45;;;4.75;;
46318;SDS011;32042;50.916;2.926;2022-07-18T00:57:50;6.93;;;5.28;;
46318;SDS011;32042;50.916;2.926;2022-07-18T01:00:16;10.00;;;5.00;;
46318;SDS011;32042;50.916;2.926;2022-07-18T01:03:00;5.03;;;4.60;;
46318;SDS011;32042;50.916;2.926;2022-07-18T01:05:26;6.72;;;4.88;;
46318;SDS011;32042;50.916;2.926;2022-07-18T01:07:52;4.75;;;4.35;;
46318;SDS011;32042;50.916;2.926;2022-07-18T01:10:18;6.63;;;4.90;;
46318;SDS011;32042;50.916;2.926;2022-07-18T01:12:44;5.10;;;4.20;;
46318;SDS011;32042;50.916;2.926;2022-07-18T01:15:10;6.95;;;4.70;;
46318;SDS011;32042;50.916;2.926;2022-07-18T01:17:36;5.65;;;4.80;;
46318;SDS011;32042;50.916;2.926;2022-07-18T01:20:02;7.55;;;4.75;;
46318;SDS011;32042;50.916;2.926;2022-07-18T01:22:29;8.77;;;4.10;;
46318;SDS011;32042;50.916;2.926;2022-07-18T01:24:55;9.85;;;5.50;;
46318;SDS011;32042;50.916;2.926;2022-07-18T01:27:21;5.60;;;5.00;;
46318;SDS011;32042;50.916;2.926;2022-07-18T01:29:47;5.55;;;4.70;;
46318;SDS011;32042;50.916;2.926;2022-07-18T01:32:15;10.93;;;4.38;;
46318;SDS011;32042;50.916;2.926;2022-07-18T01:34:41;4.95;;;4.50;;
46318;SDS011;32042;50.916;2.926;2022-07-18T01:37:08;5.57;;;3.97;;
46318;SDS011;32042;50.916;2.926;2022-07-18T01:39:34;4.28;;;3.88;;
46318;SDS011;32042;50.916;2.926;2022-07-18T01:42:02;5.05;;;4.30;;
46318;SDS011;32042;50.916;2.926;2022-07-18T01:44:30;6.28;;;4.30;;
46318;SDS011;32042;50.916;2.926;2022-07-18T01:46:56;5.38;;;4.82;;
46318;SDS011;32042;50.916;2.926;2022-07-18T01:49:22;4.35;;;3.95;;
46318;SDS011;32042;50.916;2.926;2022-07-18T01:51:50;7.20;;;4.18;;
46318;SDS011;32042;50.916;2.926;2022-07-18T01:54:21;5.75;;;3.67;;
46318;SDS011;32042;50.916;2.926;2022-07-18T01:56:49;6.43;;;4.18;;
46318;SDS011;32042;50.916;2.926;2022-07-18T01:59:15;6.75;;;4.13;;
46318;SDS011;32042;50.916;2.926;2022-07-18T02:01:41;5.65;;;4.43;;
46318;SDS011;32042;50.916;2.926;2022-07-18T02:04:07;6.45;;;4.30;;
46318;SDS011;32042;50.916;2.926;2022-07-18T02:06:32;5.32;;;3.80;;
46318;SDS011;32042;50.916;2.926;2022-07-18T02:08:58;4.20;;;3.78;;
46318;SDS011;32042;50.916;2.926;2022-07-18T02:11:24;4.30;;;3.95;;
46318;SDS011;32042;50.916;2.926;2022-07-18T02:13:49;7.35;;;4.13;;
46318;SDS011;32042;50.916;2.926;2022-07-18T02:16:15;4.40;;;3.70;;
46318;SDS011;32042;50.916;2.926;2022-07-18T02:18:41;4.57;;;3.58;;
46318;SDS011;32042;50.916;2.926;2022-07-18T02:21:07;6.60;;;3.50;;
46318;SDS011;32042;50.916;2.926;2022-07-18T02:23:33;5.22;;;3.35;;
46318;SDS011;32042;50.916;2.926;2022-07-18T02:25:59;3.72;;;3.33;;
46318;SDS011;32042;50.916;2.926;2022-07-18T02:28:25;3.92;;;3.30;;
46318;SDS011;32042;50.916;2.926;2022-07-18T02:30:51;4.35;;;3.47;;
46318;SDS011;32042;50.916;2.926;2022-07-18T02:33:18;5.65;;;3.53;;
46318;SDS011;32042;50.916;2.926;2022-07-18T02:35:45;4.25;;;3.55;;
46318;SDS011;32042;50.916;2.926;2022-07-18T02:38:13;5.63;;;3.40;;
46318;SDS011;32042;50.916;2.926;2022-07-18T02:40:39;5.32;;;3.42;;
46318;SDS011;32042;50.916;2.926;2022-07-18T02:43:06;6.95;;;3.30;;
46318;SDS011;32042;50.916;2.926;2022-07-18T02:45:33;6.90;;;3.70;;
46318;SDS011;32042;50.916;2.926;2022-07-18T02:47:59;5.07;;;3.53;;
46318;SDS011;32042;50.916;2.926;2022-07-18T02:50:26;5.43;;;3.30;;
46318;SDS011;32042;50.916;2.926;2022-07-18T02:52:53;7.72;;;3.10;;
46318;SDS011;32042;50.916;2.926;2022-07-18T02:55:21;6.72;;;3.55;;
46318;SDS011;32042;50.916;2.926;2022-07-18T02:57:48;5.05;;;3.30;;
46318;SDS011;32042;50.916;2.926;2022-07-18T03:00:14;5.75;;;3.28;;
46318;SDS011;32042;50.916;2.926;2022-07-18T03:02:41;5.20;;;3.10;;
46318;SDS011;32042;50.916;2.926;2022-07-18T03:05:07;3.63;;;3.20;;
46318;SDS011;32042;50.916;2.926;2022-07-18T03:07:33;3.28;;;2.97;;
46318;SDS011;32042;50.916;2.926;2022-07-18T03:09:59;5.35;;;3.13;;
46318;SDS011;32042;50.916;2.926;2022-07-18T03:12:25;4.10;;;3.00;;
46318;SDS011;32042;50.916;2.926;2022-07-18T03:14:51;4.68;;;2.80;;
46318;SDS011;32042;50.916;2.926;2022-07-18T03:17:17;4.30;;;2.80;;
46318;SDS011;32042;50.916;2.926;2022-07-18T03:19:42;8.80;;;3.20;;
46318;SDS011;32042;50.916;2.926;2022-07-18T03:22:08;4.35;;;3.08;;
46318;SDS011;32042;50.916;2.926;2022-07-18T03:24:34;11.10;;;3.50;;
46318;SDS011;32042;50.916;2.926;2022-07-18T03:26:59;10.75;;;3.38;;
46318;SDS011;32042;50.916;2.926;2022-07-18T03:29:25;9.43;;;3.22;;
46318;SDS011;32042;50.916;2.926;2022-07-18T03:31:51;9.98;;;3.15;;
46318;SDS011;32042;50.916;2.926;2022-07-18T03:34:17;8.98;;;2.92;;
46318;SDS011;32042;50.916;2.926;2022-07-18T03:36:43;8.45;;;3.30;;
46318;SDS011;32042;50.916;2.926;2022-07-18T03:39:10;6.00;;;3.05;;
46318;SDS011;32042;50.916;2.926;2022-07-18T03:41:36;10.25;;;3.63;;
46318;SDS011;32042;50.916;2.926;2022-07-18T03:44:02;8.07;;;3.33;;
46318;SDS011;32042;50.916;2.926;2022-07-18T03:46:29;7.82;;;3.72;;
46318;SDS011;32042;50.916;2.926;2022-07-18T03:48:55;13.98;;;4.07;;
46318;SDS011;32042;50.916;2.926;2022-07-18T03:51:22;5.63;;;3.47;;
46318;SDS011;32042;50.916;2.926;2022-07-18T03:53:47;7.70;;;3.58;;
46318;SDS011;32042;50.916;2.926;2022-07-18T03:56:13;6.38;;;3.47;;
46318;SDS011;32042;50.916;2.926;2022-07-18T03:58:39;12.13;;;4.10;;
46318;SDS011;32042;50.916;2.926;2022-07-18T04:01:05;5.53;;;3.38;;
46318;SDS011;32042;50.916;2.926;2022-07-18T04:03:31;4.68;;;3.75;;
46318;SDS011;32042;50.916;2.926;2022-07-18T04:05:57;7.63;;;4.00;;
46318;SDS011;32042;50.916;2.926;2022-07-18T04:08:22;7.25;;;3.83;;
46318;SDS011;32042;50.916;2.926;2022-07-18T04:10:48;7.72;;;3.65;;
46318;SDS011;32042;50.916;2.926;2022-07-18T04:13:14;5.13;;;4.15;;
46318;SDS011;32042;50.916;2.926;2022-07-18T04:15:41;3.83;;;3.50;;
46318;SDS011;32042;50.916;2.926;2022-07-18T04:18:07;4.57;;;3.42;;
46318;SDS011;32042;50.916;2.926;2022-07-18T04:20:33;4.70;;;3.72;;
46318;SDS011;32042;50.916;2.926;2022-07-18T04:23:01;4.72;;;3.60;;
46318;SDS011;32042;50.916;2.926;2022-07-18T04:25:36;6.07;;;3.75;;
46318;SDS011;32042;50.916;2.926;2022-07-18T04:28:04;11.00;;;4.45;;
46318;SDS011;32042;50.916;2.926;2022-07-18T04:30:30;6.80;;;3.70;;
46318;SDS011;32042;50.916;2.926;2022-07-18T04:32:57;9.68;;;4.25;;
46318;SDS011;32042;50.916;2.926;2022-07-18T04:35:25;8.50;;;4.30;;
46318;SDS011;32042;50.916;2.926;2022-07-18T04:37:51;4.60;;;3.67;;
46318;SDS011;32042;50.916;2.926;2022-07-18T04:40:17;6.78;;;3.60;;
46318;SDS011;32042;50.916;2.926;2022-07-18T04:42:43;5.82;;;4.38;;
46318;SDS011;32042;50.916;2.926;2022-07-18T04:45:09;6.22;;;4.40;;
46318;SDS011;32042;50.916;2.926;2022-07-18T04:47:36;5.35;;;4.20;;
46318;SDS011;32042;50.916;2.926;2022-07-18T04:50:02;5.63;;;4.20;;
46318;SDS011;32042;50.916;2.926;2022-07-18T04:52:36;9.77;;;3.83;;
46318;SDS011;32042;50.916;2.926;2022-07-18T04:55:06;29.90;;;6.20;;
46318;SDS011;32042;50.916;2.926;2022-07-18T04:57:34;27.20;;;6.43;;
46318;SDS011;32042;50.916;2.926;2022-07-18T05:00:00;34.33;;;5.95;;
46318;SDS011;32042;50.916;2.926;2022-07-18T05:02:28;15.63;;;5.30;;
46318;SDS011;32042;50.916;2.926;2022-07-18T05:04:54;9.52;;;4.00;;
46318;SDS011;32042;50.916;2.926;2022-07-18T05:07:20;9.02;;;4.30;;
46318;SDS011;32042;50.916;2.926;2022-07-18T05:09:46;11.20;;;3.72;;
46318;SDS011;32042;50.916;2.926;2022-07-18T05:12:12;8.52;;;4.03;;
46318;SDS011;32042;50.916;2.926;2022-07-18T05:14:38;7.32;;;4.25;;
46318;SDS011;32042;50.916;2.926;2022-07-18T05:17:03;6.53;;;3.97;;
46318;SDS011;32042;50.916;2.926;2022-07-18T05:19:29;11.65;;;4.30;;
46318;SDS011;32042;50.916;2.926;2022-07-18T05:21:55;10.27;;;4.68;;
46318;SDS011;32042;50.916;2.926;2022-07-18T05:24:20;7.13;;;4.22;;
46318;SDS011;32042;50.916;2.926;2022-07-18T05:26:46;6.45;;;3.92;;
46318;SDS011;32042;50.916;2.926;2022-07-18T05:29:12;6.90;;;3.45;;
46318;SDS011;32042;50.916;2.926;2022-07-18T05:31:41;10.27;;;4.00;;
46318;SDS011;32042;50.916;2.926;2022-07-18T05:34:07;8.32;;;3.97;;
46318;SDS011;32042;50.916;2.926;2022-07-18T05:36:33;11.00;;;4.38;;
46318;SDS011;32042;50.916;2.926;2022-07-18T05:38:59;7.35;;;4.25;;
46318;SDS011;32042;50.916;2.926;2022-07-18T05:41:26;9.00;;;4.20;;
46318;SDS011;32042;50.916;2.926;2022-07-18T05:43:51;8.32;;;5.13;;
46318;SDS011;32042;50.916;2.926;2022-07-18T05:46:17;5.82;;;4.15;;
46318;SDS011;32042;50.916;2.926;2022-07-18T05:48:43;10.43;;;4.03;;
46318;SDS011;32042;50.916;2.926;2022-07-18T05:51:08;5.25;;;3.85;;
46318;SDS011;32042;50.916;2.926;2022-07-18T05:53:35;7.88;;;3.55;;
46318;SDS011;32042;50.916;2.926;2022-07-18T05:56:01;7.85;;;4.25;;
46318;SDS011;32042;50.916;2.926;2022-07-18T05:58:27;11.48;;;4.13;;
46318;SDS011;32042;50.916;2.926;2022-07-18T06:00:53;6.43;;;3.53;;
46318;SDS011;32042;50.916;2.926;2022-07-18T06:03:19;7.97;;;3.83;;
46318;SDS011;32042;50.916;2.926;2022-07-18T06:05:45;6.82;;;3.75;;
46318;SDS011;32042;50.916;2.926;2022-07-18T06:08:10;5.68;;;3.22;;
46318;SDS011;32042;50.916;2.926;2022-07-18T06:10:36;4.45;;;3.85;;
46318;SDS011;32042;50.916;2.926;2022-07-18T06:13:02;11.57;;;4.32;;
46318;SDS011;32042;50.916;2.926;2022-07-18T06:15:27;6.70;;;3.70;;
46318;SDS011;32042;50.916;2.926;2022-07-18T06:17:53;10.00;;;3.80;;
46318;SDS011;32042;50.916;2.926;2022-07-18T06:20:19;8.75;;;3.40;;
46318;SDS011;32042;50.916;2.926;2022-07-18T06:22:45;8.57;;;3.00;;
46318;SDS011;32042;50.916;2.926;2022-07-18T06:25:11;9.75;;;3.00;;
46318;SDS011;32042;50.916;2.926;2022-07-18T06:27:37;3.65;;;2.97;;
46318;SDS011;32042;50.916;2.926;2022-07-18T06:30:03;9.57;;;2.92;;
46318;SDS011;32042;50.916;2.926;2022-07-18T06:32:30;8.88;;;3.10;;
46318;SDS011;32042;50.916;2.926;2022-07-18T06:34:56;10.65;;;3.40;;
46318;SDS011;32042;50.916;2.926;2022-07-18T06:37:22;3.88;;;2.67;;
46318;SDS011;32042;50.916;2.926;2022-07-18T06:39:48;6.10;;;2.65;;
46318;SDS011;32042;50.916;2.926;2022-07-18T06:42:13;3.70;;;2.67;;
46318;SDS011;32042;50.916;2.926;2022-07-18T06:44:39;7.55;;;2.42;;
46318;SDS011;32042;50.916;2.926;2022-07-18T06:47:05;2.50;;;2.30;;
46318;SDS011;32042;50.916;2.926;2022-07-18T06:49:31;4.45;;;2.15;;
46318;SDS011;32042;50.916;2.926;2022-07-18T06:51:56;3.38;;;2.22;;
46318;SDS011;32042;50.916;2.926;2022-07-18T06:54:22;6.35;;;2.55;;
46318;SDS011;32042;50.916;2.926;2022-07-18T06:56:52;5.07;;;2.20;;
46318;SDS011;32042;50.916;2.926;2022-07-18T06:59:19;4.15;;;2.10;;
46318;SDS011;32042;50.916;2.926;2022-07-18T07:01:45;5.85;;;2.40;;
46318;SDS011;32042;50.916;2.926;2022-07-18T07:04:10;4.65;;;1.90;;
46318;SDS011;32042;50.916;2.926;2022-07-18T07:06:36;9.70;;;2.60;;
46318;SDS011;32042;50.916;2.926;2022-07-18T07:09:03;4.65;;;2.50;;
46318;SDS011;32042;50.916;2.926;2022-07-18T07:11:30;5.03;;;1.92;;
46318;SDS011;32042;50.916;2.926;2022-07-18T07:13:56;9.18;;;2.45;;
46318;SDS011;32042;50.916;2.926;2022-07-18T07:16:21;3.33;;;2.17;;
46318;SDS011;32042;50.916;2.926;2022-07-18T07:18:47;4.90;;;2.40;;
46318;SDS011;32042;50.916;2.926;2022-07-18T07:21:13;5.00;;;2.20;;
46318;SDS011;32042;50.916;2.926;2022-07-18T07:23:38;5.30;;;2.03;;
46318;SDS011;32042;50.916;2.926;2022-07-18T07:26:06;3.42;;;1.80;;
46318;SDS011;32042;50.916;2.926;2022-07-18T07:28:32;4.65;;;2.30;;
46318;SDS011;32042;50.916;2.926;2022-07-18T07:30:58;3.03;;;2.15;;
46318;SDS011;32042;50.916;2.926;2022-07-18T07:33:24;6.47;;;2.40;;
46318;SDS011;32042;50.916;2.926;2022-07-18T07:35:49;6.82;;;2.40;;
46318;SDS011;32042;50.916;2.926;2022-07-18T07:38:15;8.48;;;2.33;;
46318;SDS011;32042;50.916;2.926;2022-07-18T07:40:45;8.23;;;1.92;;
46318;SDS011;32042;50.916;2.926;2022-07-18T07:43:15;12.15;;;2.33;;
46318;SDS011;32042;50.916;2.926;2022-07-18T07:45:42;4.85;;;2.10;;
46318;SDS011;32042;50.916;2.926;2022-07-18T07:48:11;3.53;;;1.95;;
46318;SDS011;32042;50.916;2.926;2022-07-18T07:50:36;4.72;;;2.20;;
46318;SDS011;32042;50.916;2.926;2022-07-18T07:53:02;7.30;;;2.40;;
46318;SDS011;32042;50.916;2.926;2022-07-18T07:55:28;3.35;;;1.70;;
46318;SDS011;32042;50.916;2.926;2022-07-18T07:57:54;2.67;;;1.65;;
46318;SDS011;32042;50.916;2.926;2022-07-18T08:00:20;5.88;;;2.30;;
46318;SDS011;32042;50.916;2.926;2022-07-18T08:03:04;6.28;;;1.98;;
46318;SDS011;32042;50.916;2.926;2022-07-18T08:05:32;4.50;;;1.95;;
46318;SDS011;32042;50.916;2.926;2022-07-18T08:07:59;5.43;;;2.38;;
46318;SDS011;32042;50.916;2.926;2022-07-18T08:10:27;3.10;;;2.03;;
46318;SDS011;32042;50.916;2.926;2022-07-18T08:12:53;2.20;;;2.00;;
46318;SDS011;32042;50.916;2.926;2022-07-18T08:15:19;3.95;;;1.98;;
46318;SDS011;32042;50.916;2.926;2022-07-18T08:17:44;5.28;;;1.95;;
46318;SDS011;32042;50.916;2.926;2022-07-18T08:20:10;5.78;;;1.95;;
46318;SDS011;32042;50.916;2.926;2022-07-18T08:22:51;3.95;;;1.80;;
46318;SDS011;32042;50.916;2.926;2022-07-18T08:25:21;5.97;;;2.10;;
46318;SDS011;32042;50.916;2.926;2022-07-18T08:27:48;4.85;;;1.98;;
46318;SDS011;32042;50.916;2.926;2022-07-18T08:30:14;4.97;;;1.85;;
46318;SDS011;32042;50.916;2.926;2022-07-18T08:32:39;4.97;;;2.03;;
46318;SDS011;32042;50.916;2.926;2022-07-18T08:35:05;3.30;;;1.67;;
46318;SDS011;32042;50.916;2.926;2022-07-18T08:37:31;4.55;;;2.20;;
46318;SDS011;32042;50.916;2.926;2022-07-18T08:39:57;3.53;;;1.60;;
46318;SDS011;32042;50.916;2.926;2022-07-18T08:42:23;4.43;;;1.90;;
46318;SDS011;32042;50.916;2.926;2022-07-18T08:44:52;6.60;;;2.20;;
46318;SDS011;32042;50.916;2.926;2022-07-18T08:47:20;3.65;;;1.83;;
46318;SDS011;32042;50.916;2.926;2022-07-18T08:49:47;4.10;;;1.45;;
46318;SDS011;32042;50.916;2.926;2022-07-18T08:52:13;6.38;;;1.60;;
46318;SDS011;32042;50.916;2.926;2022-07-18T08:54:40;8.15;;;1.80;;
46318;SDS011;32042;50.916;2.926;2022-07-18T08:57:06;5.57;;;2.03;;
46318;SDS011;32042;50.916;2.926;2022-07-18T08:59:32;6.00;;;2.00;;
46318;SDS011;32042;50.916;2.926;2022-07-18T09:01:57;2.83;;;1.50;;
46318;SDS011;32042;50.916;2.926;2022-07-18T09:07:05;5.53;;;2.08;;
46318;SDS011;32042;50.916;2.926;2022-07-18T09:09:33;5.60;;;1.80;;
46318;SDS011;32042;50.916;2.926;2022-07-18T09:12:04;18.60;;;2.83;;
46318;SDS011;32042;50.916;2.926;2022-07-18T09:14:43;4.63;;;1.73;;
46318;SDS011;32042;50.916;2.926;2022-07-18T09:17:10;5.90;;;1.85;;
46318;SDS011;32042;50.916;2.926;2022-07-18T09:19:42;3.78;;;1.85;;
46318;SDS011;32042;50.916;2.926;2022-07-18T09:22:21;4.22;;;1.83;;
46318;SDS011;32042;50.916;2.926;2022-07-18T09:24:50;5.00;;;1.45;;
46318;SDS011;32042;50.916;2.926;2022-07-18T09:27:26;8.10;;;1.80;;
46318;SDS011;32042;50.916;2.926;2022-07-18T09:30:06;5.35;;;1.67;;
46318;SDS011;32042;50.916;2.926;2022-07-18T09:32:33;3.72;;;1.38;;
46318;SDS011;32042;50.916;2.926;2022-07-18T09:37:32;3.25;;;1.60;;
46318;SDS011;32042;50.916;2.926;2022-07-18T09:40:15;3.78;;;2.05;;
46318;SDS011;32042;50.916;2.926;2022-07-18T09:42:43;3.97;;;1.30;;
46318;SDS011;32042;50.916;2.926;2022-07-18T09:45:14;6.07;;;1.70;;
46318;SDS011;32042;50.916;2.926;2022-07-18T09:47:48;1.80;;;1.42;;
46318;SDS011;32042;50.916;2.926;2022-07-18T09:55:43;5.53;;;1.50;;
46318;SDS011;32042;50.916;2.926;2022-07-18T09:58:10;3.15;;;1.73;;
46318;SDS011;32042;50.916;2.926;2022-07-18T10:00:37;1.63;;;1.23;;
46318;SDS011;32042;50.916;2.926;2022-07-18T10:03:05;4.60;;;1.80;;
46318;SDS011;32042;50.916;2.926;2022-07-18T10:05:33;7.63;;;1.40;;
46318;SDS011;32042;50.916;2.926;2022-07-18T10:08:00;1.70;;;1.33;;
46318;SDS011;32042;50.916;2.926;2022-07-18T10:10:28;2.55;;;1.35;;
46318;SDS011;32042;50.916;2.926;2022-07-18T10:12:56;1.67;;;1.50;;
46318;SDS011;32042;50.916;2.926;2022-07-18T10:15:24;2.75;;;1.65;;
46318;SDS011;32042;50.916;2.926;2022-07-18T10:17:56;5.57;;;1.55;;
46318;SDS011;32042;50.916;2.926;2022-07-18T10:21:06;4.32;;;1.65;;
46318;SDS011;32042;50.916;2.926;2022-07-18T10:26:32;2.17;;;1.63;;
46318;SDS011;32042;50.916;2.926;2022-07-18T10:31:21;8.00;;;1.55;;
46318;SDS011;32042;50.916;2.926;2022-07-18T10:33:47;3.33;;;1.17;;
46318;SDS011;32042;50.916;2.926;2022-07-18T10:36:14;2.72;;;1.77;;
46318;SDS011;32042;50.916;2.926;2022-07-18T10:39:31;2.53;;;1.67;;
46318;SDS011;32042;50.916;2.926;2022-07-18T10:57:42;2.30;;;1.42;;
46318;SDS011;32042;50.916;2.926;2022-07-18T11:02:45;2.30;;;1.55;;
46318;SDS011;32042;50.916;2.926;2022-07-18T11:18:18;2.63;;;1.17;;
46318;SDS011;32042;50.916;2.926;2022-07-18T11:20:44;4.47;;;1.80;;
46318;SDS011;32042;50.916;2.926;2022-07-18T11:23:13;1.95;;;1.65;;
46318;SDS011;32042;50.916;2.926;2022-07-18T11:25:42;3.17;;;1.55;;
46318;SDS011;32042;50.916;2.926;2022-07-18T11:28:12;4.53;;;1.70;;
46318;SDS011;32042;50.916;2.926;2022-07-18T11:30:38;6.20;;;1.80;;
46318;SDS011;32042;50.916;2.926;2022-07-18T11:33:05;2.50;;;1.73;;
46318;SDS011;32042;50.916;2.926;2022-07-18T11:35:31;8.57;;;1.80;;
46318;SDS011;32042;50.916;2.926;2022-07-18T11:37:57;1.60;;;1.48;;
46318;SDS011;32042;50.916;2.926;2022-07-18T11:40:29;2.35;;;1.40;;
46318;SDS011;32042;50.916;2.926;2022-07-18T11:42:58;2.78;;;1.48;;
46318;SDS011;32042;50.916;2.926;2022-07-18T11:45:24;4.78;;;1.60;;
46318;SDS011;32042;50.916;2.926;2022-07-18T11:47:51;2.83;;;1.52;;
46318;SDS011;32042;50.916;2.926;2022-07-18T11:50:18;5.40;;;1.63;;
46318;SDS011;32042;50.916;2.926;2022-07-18T11:52:55;5.43;;;1.70;;
46318;SDS011;32042;50.916;2.926;2022-07-18T11:55:31;3.78;;;1.80;;
46318;SDS011;32042;50.916;2.926;2022-07-18T11:58:05;4.82;;;1.90;;
46318;SDS011;32042;50.916;2.926;2022-07-18T12:00:32;4.90;;;1.60;;
46318;SDS011;32042;50.916;2.926;2022-07-18T12:03:12;5.90;;;1.70;;
46318;SDS011;32042;50.916;2.926;2022-07-18T12:05:51;3.83;;;1.33;;
46318;SDS011;32042;50.916;2.926;2022-07-18T12:11:17;1.83;;;1.60;;
46318;SDS011;32042;50.916;2.926;2022-07-18T12:14:01;2.60;;;2.03;;
46318;SDS011;32042;50.916;2.926;2022-07-18T12:16:36;3.85;;;2.17;;
46318;SDS011;32042;50.916;2.926;2022-07-18T12:19:20;3.55;;;1.52;;
46318;SDS011;32042;50.916;2.926;2022-07-18T12:21:50;11.85;;;1.67;;
46318;SDS011;32042;50.916;2.926;2022-07-18T12:27:09;3.88;;;1.90;;
46318;SDS011;32042;50.916;2.926;2022-07-18T12:32:36;1.55;;;1.10;;
46318;SDS011;32042;50.916;2.926;2022-07-18T12:35:08;2.30;;;1.40;;
46318;SDS011;32042;50.916;2.926;2022-07-18T12:37:39;1.95;;;1.40;;
46318;SDS011;32042;50.916;2.926;2022-07-18T12:40:09;4.53;;;1.30;;
46318;SDS011;32042;50.916;2.926;2022-07-18T12:42:38;2.83;;;1.30;;
46318;SDS011;32042;50.916;2.926;2022-07-18T12:45:05;2.22;;;1.38;;
46318;SDS011;32042;50.916;2.926;2022-07-18T12:47:31;3.38;;;1.50;;
46318;SDS011;32042;50.916;2.926;2022-07-18T12:49:57;2.70;;;1.80;;
46318;SDS011;32042;50.916;2.926;2022-07-18T12:52:23;2.35;;;1.40;;
46318;SDS011;32042;50.916;2.926;2022-07-18T12:54:49;2.28;;;1.05;;
46318;SDS011;32042;50.916;2.926;2022-07-18T12:57:15;2.20;;;1.55;;
46318;SDS011;32042;50.916;2.926;2022-07-18T12:59:42;1.40;;;1.30;;
46318;SDS011;32042;50.916;2.926;2022-07-18T13:02:08;2.53;;;1.55;;
46318;SDS011;32042;50.916;2.926;2022-07-18T13:04:34;4.55;;;1.70;;
46318;SDS011;32042;50.916;2.926;2022-07-18T13:06:59;2.65;;;1.45;;
46318;SDS011;32042;50.916;2.926;2022-07-18T13:09:25;6.82;;;1.42;;
46318;SDS011;32042;50.916;2.926;2022-07-18T13:11:51;6.40;;;1.50;;
46318;SDS011;32042;50.916;2.926;2022-07-18T13:14:17;2.22;;;1.30;;
46318;SDS011;32042;50.916;2.926;2022-07-18T13:16:43;3.13;;;1.40;;
46318;SDS011;32042;50.916;2.926;2022-07-18T13:19:14;2.63;;;1.45;;
46318;SDS011;32042;50.916;2.926;2022-07-18T13:21:40;2.90;;;1.30;;
46318;SDS011;32042;50.916;2.926;2022-07-18T13:24:07;1.67;;;1.23;;
46318;SDS011;32042;50.916;2.926;2022-07-18T13:26:32;5.07;;;1.58;;
46318;SDS011;32042;50.916;2.926;2022-07-18T13:28:58;2.13;;;1.75;;
46318;SDS011;32042;50.916;2.926;2022-07-18T13:31:24;2.20;;;1.63;;
46318;SDS011;32042;50.916;2.926;2022-07-18T13:33:50;3.13;;;1.80;;
46318;SDS011;32042;50.916;2.926;2022-07-18T13:36:16;1.55;;;1.40;;
46318;SDS011;32042;50.916;2.926;2022-07-18T13:38:42;2.95;;;1.90;;
46318;SDS011;32042;50.916;2.926;2022-07-18T13:41:09;5.60;;;1.75;;
46318;SDS011;32042;50.916;2.926;2022-07-18T13:43:35;1.70;;;1.10;;
46318;SDS011;32042;50.916;2.926;2022-07-18T13:46:11;3.38;;;1.40;;
46318;SDS011;32042;50.916;2.926;2022-07-18T13:48:38;3.85;;;1.35;;
46318;SDS011;32042;50.916;2.926;2022-07-18T13:51:05;2.42;;;1.60;;
46318;SDS011;32042;50.916;2.926;2022-07-18T13:53:31;2.03;;;1.50;;
46318;SDS011;32042;50.916;2.926;2022-07-18T13:55:57;1.95;;;1.38;;
46318;SDS011;32042;50.916;2.926;2022-07-18T13:58:23;2.67;;;1.20;;
46318;SDS011;32042;50.916;2.926;2022-07-18T14:00:49;2.72;;;1.70;;
46318;SDS011;32042;50.916;2.926;2022-07-18T14:03:15;1.33;;;1.20;;
46318;SDS011;32042;50.916;2.926;2022-07-18T14:05:41;2.95;;;1.50;;
46318;SDS011;32042;50.916;2.926;2022-07-18T14:08:08;4.32;;;1.70;;
46318;SDS011;32042;50.916;2.926;2022-07-18T14:10:34;3.25;;;1.42;;
46318;SDS011;32042;50.916;2.926;2022-07-18T14:13:00;3.45;;;1.50;;
46318;SDS011;32042;50.916;2.926;2022-07-18T14:15:27;2.90;;;1.77;;
46318;SDS011;32042;50.916;2.926;2022-07-18T14:17:52;2.35;;;1.55;;
46318;SDS011;32042;50.916;2.926;2022-07-18T14:20:18;4.70;;;1.52;;
46318;SDS011;32042;50.916;2.926;2022-07-18T14:22:46;6.38;;;1.52;;
46318;SDS011;32042;50.916;2.926;2022-07-18T14:25:13;3.63;;;1.35;;
46318;SDS011;32042;50.916;2.926;2022-07-18T14:27:41;3.35;;;1.73;;
46318;SDS011;32042;50.916;2.926;2022-07-18T14:30:07;5.25;;;1.63;;
46318;SDS011;32042;50.916;2.926;2022-07-18T14:32:35;6.00;;;1.45;;
46318;SDS011;32042;50.916;2.926;2022-07-18T14:35:01;4.65;;;1.98;;
46318;SDS011;32042;50.916;2.926;2022-07-18T14:37:26;4.07;;;1.70;;
46318;SDS011;32042;50.916;2.926;2022-07-18T14:39:52;4.25;;;1.52;;
46318;SDS011;32042;50.916;2.926;2022-07-18T14:42:18;2.83;;;1.33;;
46318;SDS011;32042;50.916;2.926;2022-07-18T14:44:43;5.45;;;1.70;;
46318;SDS011;32042;50.916;2.926;2022-07-18T14:47:09;4.25;;;1.27;;
46318;SDS011;32042;50.916;2.926;2022-07-18T14:49:35;2.17;;;1.42;;
46318;SDS011;32042;50.916;2.926;2022-07-18T14:52:00;6.53;;;1.85;;
46318;SDS011;32042;50.916;2.926;2022-07-18T14:54:27;3.40;;;1.55;;
46318;SDS011;32042;50.916;2.926;2022-07-18T14:56:53;3.30;;;1.50;;
46318;SDS011;32042;50.916;2.926;2022-07-18T14:59:20;2.63;;;1.58;;
46318;SDS011;32042;50.916;2.926;2022-07-18T15:01:46;4.10;;;1.35;;
46318;SDS011;32042;50.916;2.926;2022-07-18T15:04:12;3.60;;;1.40;;
46318;SDS011;32042;50.916;2.926;2022-07-18T15:06:38;2.47;;;1.33;;
46318;SDS011;32042;50.916;2.926;2022-07-18T15:09:05;3.60;;;1.55;;
46318;SDS011;32042;50.916;2.926;2022-07-18T15:11:32;9.68;;;1.83;;
46318;SDS011;32042;50.916;2.926;2022-07-18T15:13:58;6.10;;;1.30;;
46318;SDS011;32042;50.916;2.926;2022-07-18T15:16:24;3.10;;;1.60;;
46318;SDS011;32042;50.916;2.926;2022-07-18T15:18:50;2.95;;;1.30;;
46318;SDS011;32042;50.916;2.926;2022-07-18T15:21:16;2.58;;;1.33;;
46318;SDS011;32042;50.916;2.926;2022-07-18T15:23:41;1.77;;;1.30;;
46318;SDS011;32042;50.916;2.926;2022-07-18T15:26:07;2.10;;;1.42;;
46318;SDS011;32042;50.916;2.926;2022-07-18T15:28:33;2.38;;;1.50;;
46318;SDS011;32042;50.916;2.926;2022-07-18T15:30:59;5.88;;;1.27;;
46318;SDS011;32042;50.916;2.926;2022-07-18T15:33:25;4.55;;;1.75;;
46318;SDS011;32042;50.916;2.926;2022-07-18T15:35:50;5.47;;;1.38;;
46318;SDS011;32042;50.916;2.926;2022-07-18T15:38:16;5.22;;;1.45;;
46318;SDS011;32042;50.916;2.926;2022-07-18T15:40:42;5.18;;;1.48;;
46318;SDS011;32042;50.916;2.926;2022-07-18T15:43:08;2.65;;;1.55;;